sensor_id;sensor_type;location;lat;lon;timestamp;pressure;altitude;pressure_sealevel;temperature;humidity
33161;BME280;19522;45.656;11.302;2023-03-04T00:00:57;98539.72;;;5.46;82.24
33161;BME280;19522;45.656;11.302;2023-03-04T00:03:22;98562.50;;;5.24;83.29
33161;BME280;19522;45.656;11.302;2023-03-04T00:05:48;98551.44;;;5.27;83.34
33161;BME280;19522;45.656;11.302;2023-03-04T00:08:18;98565.31;;;5.33;83.14
33161;BME280;19522;45.656;11.302;2023-03-04T00:10:48;98562.94;;;5.29;83.42
33161;BME280;19522;45.656;11.302;2023-03-04T00:13:18;98527.00;;;5.39;81.38
33161;BME280;19522;45.656;11.302;2023-03-04T00:15:47;98560.72;;;5.43;81.82
33161;BME280;19522;45.656;11.302;2023-03-04T00:18:15;98513.38;;;5.22;81.41
33161;BME280;19522;45.656;11.302;2023-03-04T00:20:42;98544.81;;;5.22;82.28
33161;BME280;19522;45.656;11.302;2023-03-04T00:23:09;98569.19;;;5.48;81.90
33161;BME280;19522;45.656;11.302;2023-03-04T00:25:37;98575.25;;;5.50;81.80
33161;BME280;19522;45.656;11.302;2023-03-04T00:28:11;98572.25;;;5.53;81.53
33161;BME280;19522;45.656;11.302;2023-03-04T00:30:38;98577.78;;;5.52;80.98
33161;BME280;19522;45.656;11.302;2023-03-04T00:33:05;98578.50;;;5.54;81.01
33161;BME280;19522;45.656;11.302;2023-03-04T00:35:40;98577.00;;;5.23;82.43
33161;BME280;19522;45.656;11.302;2023-03-04T00:38:07;98579.28;;;5.18;82.73
33161;BME280;19522;45.656;11.302;2023-03-04T00:40:34;98577.78;;;5.06;83.58
33161;BME280;19522;45.656;11.302;2023-03-04T00:43:02;98563.75;;;5.12;83.05
33161;BME280;19522;45.656;11.302;2023-03-04T00:45:27;98588.53;;;5.15;83.24
33161;BME280;19522;45.656;11.302;2023-03-04T00:47:53;98584.28;;;5.13;83.37
33161;BME280;19522;45.656;11.302;2023-03-04T00:50:18;98529.13;;;4.71;84.00
33161;BME280;19522;45.656;11.302;2023-03-04T00:52:44;98548.72;;;4.81;84.14
33161;BME280;19522;45.656;11.302;2023-03-04T00:55:12;98545.09;;;4.73;85.11
33161;BME280;19522;45.656;11.302;2023-03-04T00:57:38;98565.03;;;4.80;85.75
33161;BME280;19522;45.656;11.302;2023-03-04T01:00:04;98573.53;;;4.85;86.30
33161;BME280;19522;45.656;11.302;2023-03-04T01:02:30;98523.16;;;4.67;85.36
33161;BME280;19522;45.656;11.302;2023-03-04T01:04:55;98576.31;;;4.93;85.50
33161;BME280;19522;45.656;11.302;2023-03-04T01:07:21;98574.06;;;4.89;85.85
33161;BME280;19522;45.656;11.302;2023-03-04T01:09:47;98552.53;;;4.89;85.88
33161;BME280;19522;45.656;11.302;2023-03-04T01:12:12;98567.09;;;4.96;85.81
33161;BME280;19522;45.656;11.302;2023-03-04T01:14:38;98541.91;;;4.87;85.75
33161;BME280;19522;45.656;11.302;2023-03-04T01:17:03;98558.91;;;5.15;85.02
33161;BME280;19522;45.656;11.302;2023-03-04T01:19:29;98537.19;;;5.17;83.99
33161;BME280;19522;45.656;11.302;2023-03-04T01:21:54;98550.16;;;5.50;82.59
33161;BME280;19522;45.656;11.302;2023-03-04T01:24:20;98543.00;;;5.40;82.40
33161;BME280;19522;45.656;11.302;2023-03-04T01:26:45;98518.84;;;5.30;82.46
33161;BME280;19522;45.656;11.302;2023-03-04T01:29:11;98538.16;;;5.44;82.62
33161;BME280;19522;45.656;11.302;2023-03-04T01:31:36;98529.84;;;5.37;83.12
33161;BME280;19522;45.656;11.302;2023-03-04T01:34:02;98541.16;;;5.41;83.06
33161;BME280;19522;45.656;11.302;2023-03-04T01:36:27;98540.00;;;5.61;81.80
33161;BME280;19522;45.656;11.302;2023-03-04T01:38:53;98502.06;;;5.55;80.61
33161;BME280;19522;45.656;11.302;2023-03-04T01:41:23;98533.16;;;5.67;81.06
33161;BME280;19522;45.656;11.302;2023-03-04T01:43:49;98533.31;;;5.66;81.20
33161;BME280;19522;45.656;11.302;2023-03-04T01:46:14;98524.16;;;5.58;81.47
33161;BME280;19522;45.656;11.302;2023-03-04T01:48:42;98512.91;;;5.45;81.86
33161;BME280;19522;45.656;11.302;2023-03-04T01:51:13;98519.28;;;5.80;80.87
33161;BME280;19522;45.656;11.302;2023-03-04T01:53:40;98506.47;;;5.82;80.41
33161;BME280;19522;45.656;11.302;2023-03-04T01:56:27;98491.00;;;5.84;79.10
33161;BME280;19522;45.656;11.302;2023-03-04T01:59:07;98506.63;;;5.99;79.09
33161;BME280;19522;45.656;11.302;2023-03-04T02:01:34;98506.94;;;5.96;79.20
33161;BME280;19522;45.656;11.302;2023-03-04T02:03:59;98435.50;;;5.47;79.39
33161;BME280;19522;45.656;11.302;2023-03-04T02:06:25;98492.41;;;5.88;78.81
33161;BME280;19522;45.656;11.302;2023-03-04T02:08:51;98498.00;;;5.95;78.69
33161;BME280;19522;45.656;11.302;2023-03-04T02:11:16;98475.84;;;5.83;78.77
33161;BME280;19522;45.656;11.302;2023-03-04T02:13:42;98460.59;;;5.74;78.68
33161;BME280;19522;45.656;11.302;2023-03-04T02:16:08;98487.63;;;6.00;78.43
33161;BME280;19522;45.656;11.302;2023-03-04T02:18:33;98482.84;;;6.20;77.52
33161;BME280;19522;45.656;11.302;2023-03-04T02:26:15;98480.53;;;6.26;77.03
33161;BME280;19522;45.656;11.302;2023-03-04T02:28:42;98487.53;;;6.10;78.04
33161;BME280;19522;45.656;11.302;2023-03-04T02:33:44;98456.97;;;6.01;77.50
33161;BME280;19522;45.656;11.302;2023-03-04T02:36:10;98464.81;;;5.95;78.39
33161;BME280;19522;45.656;11.302;2023-03-04T02:38:35;98475.06;;;5.91;79.21
33161;BME280;19522;45.656;11.302;2023-03-04T02:41:01;98477.09;;;5.97;78.99
33161;BME280;19522;45.656;11.302;2023-03-04T02:43:27;98467.50;;;5.95;78.36
33161;BME280;19522;45.656;11.302;2023-03-04T02:45:53;98405.84;;;5.47;79.07
33161;BME280;19522;45.656;11.302;2023-03-04T02:48:20;98464.28;;;5.91;79.01
33161;BME280;19522;45.656;11.302;2023-03-04T02:50:50;98437.22;;;5.74;79.36
33161;BME280;19522;45.656;11.302;2023-03-04T02:53:17;98449.53;;;5.77;79.52
33161;BME280;19522;45.656;11.302;2023-03-04T02:55:45;98473.13;;;5.83;79.52
33161;BME280;19522;45.656;11.302;2023-03-04T02:58:11;98474.47;;;5.79;79.56
33161;BME280;19522;45.656;11.302;2023-03-04T03:00:38;98468.41;;;5.59;80.66
33161;BME280;19522;45.656;11.302;2023-03-04T03:03:04;98467.97;;;5.45;81.09
33161;BME280;19522;45.656;11.302;2023-03-04T03:05:32;98452.41;;;5.39;81.33
33161;BME280;19522;45.656;11.302;2023-03-04T03:07:58;98462.59;;;5.45;81.09
33161;BME280;19522;45.656;11.302;2023-03-04T03:10:24;98461.88;;;5.25;82.28
33161;BME280;19522;45.656;11.302;2023-03-04T03:12:50;98467.44;;;5.24;82.79
33161;BME280;19522;45.656;11.302;2023-03-04T03:15:16;98464.97;;;5.30;82.41
33161;BME280;19522;45.656;11.302;2023-03-04T03:17:42;98443.91;;;5.08;82.06
33161;BME280;19522;45.656;11.302;2023-03-04T03:20:08;98445.22;;;5.04;82.99
33161;BME280;19522;45.656;11.302;2023-03-04T03:22:34;98454.22;;;4.94;83.59
33161;BME280;19522;45.656;11.302;2023-03-04T03:25:00;98416.16;;;4.61;84.64
33161;BME280;19522;45.656;11.302;2023-03-04T03:27:25;98446.91;;;5.05;83.19
33161;BME280;19522;45.656;11.302;2023-03-04T03:29:51;98458.72;;;4.94;83.51
33161;BME280;19522;45.656;11.302;2023-03-04T03:32:16;98446.56;;;4.72;84.50
33161;BME280;19522;45.656;11.302;2023-03-04T03:34:42;98470.34;;;4.94;83.80
33161;BME280;19522;45.656;11.302;2023-03-04T03:37:07;98461.88;;;4.89;83.74
33161;BME280;19522;45.656;11.302;2023-03-04T03:39:33;98464.31;;;4.82;83.96
33161;BME280;19522;45.656;11.302;2023-03-04T03:41:58;98430.78;;;4.77;83.82
33161;BME280;19522;45.656;11.302;2023-03-04T03:44:25;98446.72;;;4.88;83.72
33161;BME280;19522;45.656;11.302;2023-03-04T03:46:53;98464.38;;;4.73;84.25
33161;BME280;19522;45.656;11.302;2023-03-04T03:49:19;98472.75;;;4.70;84.66
33161;BME280;19522;45.656;11.302;2023-03-04T03:51:44;98446.38;;;4.55;84.92
33161;BME280;19522;45.656;11.302;2023-03-04T03:54:10;98464.84;;;4.68;84.88
33161;BME280;19522;45.656;11.302;2023-03-04T03:56:35;98422.47;;;4.52;84.39
33161;BME280;19522;45.656;11.302;2023-03-04T03:59:01;98457.59;;;4.68;84.29
33161;BME280;19522;45.656;11.302;2023-03-04T04:01:26;98454.91;;;4.68;84.50
33161;BME280;19522;45.656;11.302;2023-03-04T04:03:52;98437.34;;;4.46;84.92
33161;BME280;19522;45.656;11.302;2023-03-04T04:06:17;98455.38;;;4.64;84.96
33161;BME280;19522;45.656;11.302;2023-03-04T04:08:43;98463.00;;;4.68;83.84
33161;BME280;19522;45.656;11.302;2023-03-04T04:11:10;98460.63;;;4.65;84.22
33161;BME280;19522;45.656;11.302;2023-03-04T04:13:35;98458.91;;;4.64;84.35
33161;BME280;19522;45.656;11.302;2023-03-04T04:16:01;98453.91;;;4.51;84.80
33161;BME280;19522;45.656;11.302;2023-03-04T04:18:26;98462.19;;;4.58;84.49
33161;BME280;19522;45.656;11.302;2023-03-04T04:20:52;98441.19;;;4.44;84.47
33161;BME280;19522;45.656;11.302;2023-03-04T04:23:18;98459.94;;;4.53;83.99
33161;BME280;19522;45.656;11.302;2023-03-04T04:25:43;98455.91;;;4.40;84.75
33161;BME280;19522;45.656;11.302;2023-03-04T04:28:09;98457.13;;;4.27;85.68
33161;BME280;19522;45.656;11.302;2023-03-04T04:30:34;98454.91;;;4.13;86.55
33161;BME280;19522;45.656;11.302;2023-03-04T04:33:00;98458.47;;;4.03;86.92
33161;BME280;19522;45.656;11.302;2023-03-04T04:35:26;98457.66;;;3.93;88.00
33161;BME280;19522;45.656;11.302;2023-03-04T04:37:52;98452.19;;;3.75;88.71
33161;BME280;19522;45.656;11.302;2023-03-04T04:40:18;98432.09;;;3.89;87.61
33161;BME280;19522;45.656;11.302;2023-03-04T04:42:43;98446.03;;;4.02;86.62
33161;BME280;19522;45.656;11.302;2023-03-04T04:45:09;98464.06;;;4.20;86.62
33161;BME280;19522;45.656;11.302;2023-03-04T04:47:35;98442.50;;;4.02;86.77
33161;BME280;19522;45.656;11.302;2023-03-04T04:50:01;98454.84;;;3.85;87.83
33161;BME280;19522;45.656;11.302;2023-03-04T04:52:26;98423.69;;;3.54;88.69
33161;BME280;19522;45.656;11.302;2023-03-04T04:54:52;98451.56;;;4.01;87.86
33161;BME280;19522;45.656;11.302;2023-03-04T04:57:17;98457.75;;;4.11;87.12
33161;BME280;19522;45.656;11.302;2023-03-04T04:59:43;98435.72;;;3.98;86.65
33161;BME280;19522;45.656;11.302;2023-03-04T05:02:08;98464.00;;;3.92;87.92
33161;BME280;19522;45.656;11.302;2023-03-04T05:04:34;98446.25;;;3.81;87.81
33161;BME280;19522;45.656;11.302;2023-03-04T05:06:59;98452.97;;;3.95;87.36
33161;BME280;19522;45.656;11.302;2023-03-04T05:09:25;98457.53;;;3.85;87.31
33161;BME280;19522;45.656;11.302;2023-03-04T05:11:50;98456.16;;;3.71;88.20
33161;BME280;19522;45.656;11.302;2023-03-04T05:14:16;98459.22;;;3.86;87.95
33161;BME280;19522;45.656;11.302;2023-03-04T05:16:41;98434.97;;;3.48;89.23
33161;BME280;19522;45.656;11.302;2023-03-04T05:19:07;98425.66;;;3.52;88.70
33161;BME280;19522;45.656;11.302;2023-03-04T05:21:32;98449.94;;;3.61;88.62
33161;BME280;19522;45.656;11.302;2023-03-04T05:23:58;98459.16;;;3.58;89.11
33161;BME280;19522;45.656;11.302;2023-03-04T05:26:23;98450.25;;;3.48;89.58
33161;BME280;19522;45.656;11.302;2023-03-04T05:28:49;98457.56;;;3.65;88.33
33161;BME280;19522;45.656;11.302;2023-03-04T05:31:14;98449.09;;;3.70;87.69
33161;BME280;19522;45.656;11.302;2023-03-04T05:33:40;98436.25;;;3.64;87.48
33161;BME280;19522;45.656;11.302;2023-03-04T05:36:06;98461.38;;;3.72;87.65
33161;BME280;19522;45.656;11.302;2023-03-04T05:38:32;98449.13;;;3.60;88.00
33161;BME280;19522;45.656;11.302;2023-03-04T05:41:00;98433.44;;;3.26;88.59
33161;BME280;19522;45.656;11.302;2023-03-04T05:43:26;98455.91;;;3.25;89.81
33161;BME280;19522;45.656;11.302;2023-03-04T05:45:53;98453.22;;;3.45;89.63
33161;BME280;19522;45.656;11.302;2023-03-04T05:48:18;98448.00;;;3.33;89.24
33161;BME280;19522;45.656;11.302;2023-03-04T05:50:44;98454.63;;;3.39;89.60
33161;BME280;19522;45.656;11.302;2023-03-04T05:53:09;98458.59;;;3.45;89.31
33161;BME280;19522;45.656;11.302;2023-03-04T05:55:35;98464.25;;;3.51;89.27
33161;BME280;19522;45.656;11.302;2023-03-04T05:58:00;98461.41;;;3.53;88.12
33161;BME280;19522;45.656;11.302;2023-03-04T06:00:26;98451.53;;;3.43;88.61
33161;BME280;19522;45.656;11.302;2023-03-04T06:02:52;98461.81;;;3.48;89.02
33161;BME280;19522;45.656;11.302;2023-03-04T06:05:17;98466.09;;;3.51;88.91
33161;BME280;19522;45.656;11.302;2023-03-04T06:07:43;98461.72;;;3.50;89.05
33161;BME280;19522;45.656;11.302;2023-03-04T06:10:11;98443.34;;;3.16;89.69
33161;BME280;19522;45.656;11.302;2023-03-04T06:12:36;98475.41;;;3.37;90.04
33161;BME280;19522;45.656;11.302;2023-03-04T06:15:02;98460.44;;;3.34;89.90
33161;BME280;19522;45.656;11.302;2023-03-04T06:17:29;98467.66;;;3.34;90.24
33161;BME280;19522;45.656;11.302;2023-03-04T06:19:54;98470.88;;;3.27;91.00
33161;BME280;19522;45.656;11.302;2023-03-04T06:22:41;98474.41;;;3.38;91.30
33161;BME280;19522;45.656;11.302;2023-03-04T06:25:06;98409.28;;;2.87;91.86
33161;BME280;19522;45.656;11.302;2023-03-04T06:27:33;98450.97;;;3.30;91.13
33161;BME280;19522;45.656;11.302;2023-03-04T06:29:59;98475.66;;;3.63;89.83
33161;BME280;19522;45.656;11.302;2023-03-04T06:32:26;98461.13;;;3.56;89.33
33161;BME280;19522;45.656;11.302;2023-03-04T06:34:52;98460.88;;;3.39;90.01
33161;BME280;19522;45.656;11.302;2023-03-04T06:37:17;98466.53;;;3.26;90.93
33161;BME280;19522;45.656;11.302;2023-03-04T06:39:44;98481.06;;;3.24;91.55
33161;BME280;19522;45.656;11.302;2023-03-04T06:42:10;98483.19;;;3.20;91.99
33161;BME280;19522;45.656;11.302;2023-03-04T06:44:36;98487.69;;;3.30;92.22
33161;BME280;19522;45.656;11.302;2023-03-04T06:47:01;98489.84;;;3.36;91.84
33161;BME280;19522;45.656;11.302;2023-03-04T06:49:27;98491.22;;;3.69;90.00
33161;BME280;19522;45.656;11.302;2023-03-04T06:51:53;98455.44;;;3.69;88.48
33161;BME280;19522;45.656;11.302;2023-03-04T06:54:22;98482.44;;;3.87;87.98
33161;BME280;19522;45.656;11.302;2023-03-04T06:56:47;98487.53;;;3.80;88.48
33161;BME280;19522;45.656;11.302;2023-03-04T06:59:13;98486.09;;;3.76;89.95
33161;BME280;19522;45.656;11.302;2023-03-04T07:01:39;98480.06;;;3.74;89.95
33161;BME280;19522;45.656;11.302;2023-03-04T07:04:04;98471.72;;;3.67;90.18
33161;BME280;19522;45.656;11.302;2023-03-04T07:06:30;98453.91;;;3.56;90.44
33161;BME280;19522;45.656;11.302;2023-03-04T07:08:56;98481.88;;;3.73;91.12
33161;BME280;19522;45.656;11.302;2023-03-04T07:11:22;98464.06;;;3.72;90.58
33161;BME280;19522;45.656;11.302;2023-03-04T07:13:49;98484.78;;;4.00;89.80
33161;BME280;19522;45.656;11.302;2023-03-04T07:16:17;98487.03;;;4.04;90.10
33161;BME280;19522;45.656;11.302;2023-03-04T07:18:43;98481.50;;;4.06;90.71
33161;BME280;19522;45.656;11.302;2023-03-04T07:21:09;98445.38;;;3.90;90.53
33161;BME280;19522;45.656;11.302;2023-03-04T07:23:35;98458.75;;;4.10;90.85
33161;BME280;19522;45.656;11.302;2023-03-04T07:26:01;98482.66;;;4.13;91.46
33161;BME280;19522;45.656;11.302;2023-03-04T07:28:27;98483.63;;;4.12;91.87
33161;BME280;19522;45.656;11.302;2023-03-04T07:30:53;98468.50;;;4.11;91.91
33161;BME280;19522;45.656;11.302;2023-03-04T07:33:18;98482.13;;;4.38;91.87
33161;BME280;19522;45.656;11.302;2023-03-04T07:35:44;98473.84;;;4.77;90.02
33161;BME280;19522;45.656;11.302;2023-03-04T07:38:09;98476.16;;;4.72;90.07
33161;BME280;19522;45.656;11.302;2023-03-04T07:40:35;98478.72;;;4.91;88.46
33161;BME280;19522;45.656;11.302;2023-03-04T07:43:01;98364.34;;;4.41;86.91
33161;BME280;19522;45.656;11.302;2023-03-04T07:45:26;98460.00;;;5.18;86.10
33161;BME280;19522;45.656;11.302;2023-03-04T07:47:52;98475.59;;;5.32;85.38
33161;BME280;19522;45.656;11.302;2023-03-04T07:50:19;98468.13;;;5.44;85.08
33161;BME280;19522;45.656;11.302;2023-03-04T07:52:46;98459.66;;;5.39;85.19
33161;BME280;19522;45.656;11.302;2023-03-04T07:55:13;98455.88;;;5.50;85.18
33161;BME280;19522;45.656;11.302;2023-03-04T07:57:41;98465.63;;;5.69;83.76
33161;BME280;19522;45.656;11.302;2023-03-04T08:00:07;98439.63;;;5.59;83.72
33161;BME280;19522;45.656;11.302;2023-03-04T08:02:33;98452.78;;;5.89;83.54
33161;BME280;19522;45.656;11.302;2023-03-04T08:04:59;98461.91;;;6.14;82.78
33161;BME280;19522;45.656;11.302;2023-03-04T08:07:24;98455.53;;;6.50;81.49
33161;BME280;19522;45.656;11.302;2023-03-04T08:09:50;98454.00;;;7.07;79.16
33161;BME280;19522;45.656;11.302;2023-03-04T08:12:15;98429.41;;;7.68;76.26
33161;BME280;19522;45.656;11.302;2023-03-04T08:14:41;98426.84;;;8.47;72.57
33161;BME280;19522;45.656;11.302;2023-03-04T08:17:06;98444.03;;;9.49;67.80
33161;BME280;19522;45.656;11.302;2023-03-04T08:19:34;98428.59;;;10.41;63.80
33161;BME280;19522;45.656;11.302;2023-03-04T08:22:00;98407.75;;;11.15;60.67
33161;BME280;19522;45.656;11.302;2023-03-04T08:24:26;98368.03;;;11.92;56.78
33161;BME280;19522;45.656;11.302;2023-03-04T08:26:52;98419.13;;;13.16;53.82
33161;BME280;19522;45.656;11.302;2023-03-04T08:29:20;98356.25;;;13.78;50.47
33161;BME280;19522;45.656;11.302;2023-03-04T08:31:48;98404.66;;;15.02;47.76
33161;BME280;19522;45.656;11.302;2023-03-04T08:34:14;98403.56;;;15.73;45.84
33161;BME280;19522;45.656;11.302;2023-03-04T08:36:40;98404.56;;;16.48;43.50
33161;BME280;19522;45.656;11.302;2023-03-04T08:39:11;98404.75;;;17.21;41.98
33161;BME280;19522;45.656;11.302;2023-03-04T08:41:37;98401.31;;;17.92;40.02
33161;BME280;19522;45.656;11.302;2023-03-04T08:44:03;98392.84;;;18.53;38.83
33161;BME280;19522;45.656;11.302;2023-03-04T08:46:28;98390.16;;;19.23;36.77
33161;BME280;19522;45.656;11.302;2023-03-04T08:48:54;98368.25;;;19.45;34.80
33161;BME280;19522;45.656;11.302;2023-03-04T08:51:20;98380.25;;;19.39;33.97
33161;BME280;19522;45.656;11.302;2023-03-04T08:53:46;98370.13;;;18.46;35.24
33161;BME280;19522;45.656;11.302;2023-03-04T08:56:12;98381.19;;;18.22;36.53
33161;BME280;19522;45.656;11.302;2023-03-04T08:58:39;98386.38;;;17.64;37.32
33161;BME280;19522;45.656;11.302;2023-03-04T09:01:10;98362.78;;;16.34;39.71
33161;BME280;19522;45.656;11.302;2023-03-04T09:03:36;98335.06;;;15.55;41.00
33161;BME280;19522;45.656;11.302;2023-03-04T09:06:03;98378.88;;;15.80;41.73
33161;BME280;19522;45.656;11.302;2023-03-04T09:08:29;98377.06;;;15.42;41.60
33161;BME280;19522;45.656;11.302;2023-03-04T09:10:55;98383.75;;;16.22;41.25
33161;BME280;19522;45.656;11.302;2023-03-04T09:13:22;98389.63;;;15.50;41.11
33161;BME280;19522;45.656;11.302;2023-03-04T09:15:50;98327.41;;;15.64;42.21
33161;BME280;19522;45.656;11.302;2023-03-04T09:18:17;98368.47;;;15.38;42.20
33161;BME280;19522;45.656;11.302;2023-03-04T09:20:46;98351.63;;;15.35;41.70
33161;BME280;19522;45.656;11.302;2023-03-04T09:23:12;98379.00;;;15.60;42.82
33161;BME280;19522;45.656;11.302;2023-03-04T09:25:39;98373.31;;;14.98;41.31
33161;BME280;19522;45.656;11.302;2023-03-04T09:28:05;98379.91;;;14.24;43.93
33161;BME280;19522;45.656;11.302;2023-03-04T09:30:31;98381.88;;;14.76;44.32
33161;BME280;19522;45.656;11.302;2023-03-04T09:32:58;98368.72;;;15.55;42.35
33161;BME280;19522;45.656;11.302;2023-03-04T09:35:23;98367.47;;;15.58;42.33
33161;BME280;19522;45.656;11.302;2023-03-04T09:37:49;98374.09;;;15.43;40.69
33161;BME280;19522;45.656;11.302;2023-03-04T09:40:21;98367.19;;;15.41;42.24
33161;BME280;19522;45.656;11.302;2023-03-04T09:42:52;98312.28;;;14.72;42.29
33161;BME280;19522;45.656;11.302;2023-03-04T09:45:21;98363.22;;;15.05;42.51
33161;BME280;19522;45.656;11.302;2023-03-04T09:47:49;98361.06;;;14.61;42.95
33161;BME280;19522;45.656;11.302;2023-03-04T09:50:17;98344.25;;;13.92;43.71
33161;BME280;19522;45.656;11.302;2023-03-04T09:55:43;98353.31;;;13.86;43.03
33161;BME280;19522;45.656;11.302;2023-03-04T10:00:44;98355.19;;;14.71;42.09
33161;BME280;19522;45.656;11.302;2023-03-04T10:03:44;98353.41;;;14.25;45.09
33161;BME280;19522;45.656;11.302;2023-03-04T10:06:16;98331.16;;;14.21;45.08
33161;BME280;19522;45.656;11.302;2023-03-04T10:11:34;98348.66;;;14.07;43.90
33161;BME280;19522;45.656;11.302;2023-03-04T10:16:51;98347.44;;;13.49;45.67
33161;BME280;19522;45.656;11.302;2023-03-04T10:19:21;98347.88;;;13.46;45.20
33161;BME280;19522;45.656;11.302;2023-03-04T10:21:50;98321.41;;;13.60;47.40
33161;BME280;19522;45.656;11.302;2023-03-04T10:24:18;98341.09;;;13.95;44.54
33161;BME280;19522;45.656;11.302;2023-03-04T10:26:47;98333.88;;;14.28;45.13
33161;BME280;19522;45.656;11.302;2023-03-04T10:29:18;98333.72;;;14.16;45.28
33161;BME280;19522;45.656;11.302;2023-03-04T10:31:45;98317.91;;;14.25;45.46
33161;BME280;19522;45.656;11.302;2023-03-04T10:34:12;98322.78;;;14.16;45.17
33161;BME280;19522;45.656;11.302;2023-03-04T10:37:09;98329.38;;;13.61;45.08
33161;BME280;19522;45.656;11.302;2023-03-04T10:39:46;98323.53;;;13.51;46.51
33161;BME280;19522;45.656;11.302;2023-03-04T10:44:53;98314.44;;;14.04;45.78
33161;BME280;19522;45.656;11.302;2023-03-04T10:47:22;98314.22;;;13.85;45.49
33161;BME280;19522;45.656;11.302;2023-03-04T10:49:51;98286.59;;;13.55;44.93
33161;BME280;19522;45.656;11.302;2023-03-04T10:52:24;98308.78;;;13.85;46.31
33161;BME280;19522;45.656;11.302;2023-03-04T10:54:53;98299.44;;;14.20;45.62
33161;BME280;19522;45.656;11.302;2023-03-04T10:57:26;98311.22;;;14.21;45.54
33161;BME280;19522;45.656;11.302;2023-03-04T10:59:56;98306.69;;;13.81;45.10
33161;BME280;19522;45.656;11.302;2023-03-04T11:02:32;98300.63;;;13.79;44.67
33161;BME280;19522;45.656;11.302;2023-03-04T11:07:42;98267.22;;;14.42;42.62
33161;BME280;19522;45.656;11.302;2023-03-04T11:12:46;98284.06;;;14.32;42.21
33161;BME280;19522;45.656;11.302;2023-03-04T11:15:21;98282.25;;;14.13;42.59
33161;BME280;19522;45.656;11.302;2023-03-04T11:18:03;98271.59;;;14.43;42.72
33161;BME280;19522;45.656;11.302;2023-03-04T11:20:41;98271.78;;;14.03;41.95
33161;BME280;19522;45.656;11.302;2023-03-04T11:23:15;98259.16;;;14.54;43.88
33161;BME280;19522;45.656;11.302;2023-03-04T11:25:49;98257.97;;;14.82;41.88
33161;BME280;19522;45.656;11.302;2023-03-04T11:28:21;98255.38;;;15.19;41.42
33161;BME280;19522;45.656;11.302;2023-03-04T11:30:54;98255.81;;;14.52;41.26
33161;BME280;19522;45.656;11.302;2023-03-04T11:39:28;98203.03;;;15.16;39.37
33161;BME280;19522;45.656;11.302;2023-03-04T11:42:02;98237.53;;;15.86;39.92
33161;BME280;19522;45.656;11.302;2023-03-04T11:44:33;98229.81;;;15.95;40.53
33161;BME280;19522;45.656;11.302;2023-03-04T12:25:41;98160.22;;;16.33;38.81
33161;BME280;19522;45.656;11.302;2023-03-04T12:33:47;98155.75;;;15.71;39.33
33161;BME280;19522;45.656;11.302;2023-03-04T12:38:59;98141.53;;;16.30;38.97
33161;BME280;19522;45.656;11.302;2023-03-04T12:44:17;98138.84;;;15.74;38.02
33161;BME280;19522;45.656;11.302;2023-03-04T12:47:22;98132.31;;;16.78;38.55
33161;BME280;19522;45.656;11.302;2023-03-04T12:52:35;98122.28;;;16.48;38.58
33161;BME280;19522;45.656;11.302;2023-03-04T12:55:09;98107.16;;;16.81;37.66
33161;BME280;19522;45.656;11.302;2023-03-04T12:57:36;98112.69;;;17.29;36.44
33161;BME280;19522;45.656;11.302;2023-03-04T13:05:17;98109.34;;;17.15;38.21
33161;BME280;19522;45.656;11.302;2023-03-04T13:10:26;98115.41;;;16.81;38.41
33161;BME280;19522;45.656;11.302;2023-03-04T13:12:55;98110.44;;;17.02;39.66
33161;BME280;19522;45.656;11.302;2023-03-04T13:17:49;98099.47;;;17.02;38.96
33161;BME280;19522;45.656;11.302;2023-03-04T13:20:37;98097.50;;;16.67;39.36
33161;BME280;19522;45.656;11.302;2023-03-04T13:23:22;98092.75;;;16.20;40.26
33161;BME280;19522;45.656;11.302;2023-03-04T13:28:22;98090.13;;;16.13;41.09
33161;BME280;19522;45.656;11.302;2023-03-04T13:36:03;98079.97;;;17.80;39.24
33161;BME280;19522;45.656;11.302;2023-03-04T13:56:40;98063.19;;;17.00;41.01
33161;BME280;19522;45.656;11.302;2023-03-04T14:04:01;98063.69;;;16.97;40.68
33161;BME280;19522;45.656;11.302;2023-03-04T14:06:34;98068.66;;;16.88;41.03
33161;BME280;19522;45.656;11.302;2023-03-04T14:09:15;98056.00;;;16.51;42.14
33161;BME280;19522;45.656;11.302;2023-03-04T14:11:41;98047.22;;;16.49;40.91
33161;BME280;19522;45.656;11.302;2023-03-04T14:14:22;98051.81;;;16.37;42.42
33161;BME280;19522;45.656;11.302;2023-03-04T14:16:57;98047.41;;;16.24;41.69
33161;BME280;19522;45.656;11.302;2023-03-04T14:19:31;98042.44;;;16.80;40.88
33161;BME280;19522;45.656;11.302;2023-03-04T14:22:00;98037.63;;;16.40;41.09
33161;BME280;19522;45.656;11.302;2023-03-04T14:24:26;98031.69;;;16.55;41.59
33161;BME280;19522;45.656;11.302;2023-03-04T14:27:23;98039.09;;;16.43;40.59
33161;BME280;19522;45.656;11.302;2023-03-04T14:30:00;98024.19;;;16.86;39.79
33161;BME280;19522;45.656;11.302;2023-03-04T14:32:27;98035.31;;;17.03;39.96
33161;BME280;19522;45.656;11.302;2023-03-04T14:35:01;98031.13;;;16.65;40.23
33161;BME280;19522;45.656;11.302;2023-03-04T14:37:36;97996.44;;;16.71;39.83
33161;BME280;19522;45.656;11.302;2023-03-04T14:40:06;98032.66;;;16.37;40.51
33161;BME280;19522;45.656;11.302;2023-03-04T14:42:39;98024.88;;;16.34;40.46
33161;BME280;19522;45.656;11.302;2023-03-04T14:45:10;97971.00;;;15.62;41.17
33161;BME280;19522;45.656;11.302;2023-03-04T14:47:40;97988.72;;;15.89;41.24
33161;BME280;19522;45.656;11.302;2023-03-04T14:50:15;98003.50;;;15.88;41.55
33161;BME280;19522;45.656;11.302;2023-03-04T14:52:43;98004.03;;;16.21;40.42
33161;BME280;19522;45.656;11.302;2023-03-04T14:57:38;98001.69;;;15.64;42.48
33161;BME280;19522;45.656;11.302;2023-03-04T15:00:34;98003.88;;;15.73;41.68
33161;BME280;19522;45.656;11.302;2023-03-04T15:03:15;97995.59;;;15.31;42.47
33161;BME280;19522;45.656;11.302;2023-03-04T15:05:43;98003.13;;;15.36;42.48
33161;BME280;19522;45.656;11.302;2023-03-04T15:08:27;97989.66;;;15.53;43.04
33161;BME280;19522;45.656;11.302;2023-03-04T15:11:01;97968.16;;;15.38;42.76